sensor_id;sensor_type;location;lat;lon;timestamp;temperature;humidity
6581;DHT22;3324;50.796;7.228;2023-07-20T00:01:47;19.70;99.90
6581;DHT22;3324;50.796;7.228;2023-07-20T00:04:13;19.60;99.90
6581;DHT22;3324;50.796;7.228;2023-07-20T00:06:39;19.60;99.90
6581;DHT22;3324;50.796;7.228;2023-07-20T00:09:06;19.60;99.90
6581;DHT22;3324;50.796;7.228;2023-07-20T00:11:36;19.60;99.90
6581;DHT22;3324;50.796;7.228;2023-07-20T00:14:02;19.60;99.90
6581;DHT22;3324;50.796;7.228;2023-07-20T00:16:27;19.60;99.90
6581;DHT22;3324;50.796;7.228;2023-07-20T00:18:53;19.60;99.90
6581;DHT22;3324;50.796;7.228;2023-07-20T00:21:18;19.60;99.90
6581;DHT22;3324;50.796;7.228;2023-07-20T00:23:44;19.70;99.90
6581;DHT22;3324;50.796;7.228;2023-07-20T00:26:10;19.70;99.90
6581;DHT22;3324;50.796;7.228;2023-07-20T00:28:35;19.70;99.90
6581;DHT22;3324;50.796;7.228;2023-07-20T00:31:01;19.70;99.90
6581;DHT22;3324;50.796;7.228;2023-07-20T00:33:28;19.70;99.90
6581;DHT22;3324;50.796;7.228;2023-07-20T00:35:53;19.70;99.90
6581;DHT22;3324;50.796;7.228;2023-07-20T00:38:21;19.60;99.90
6581;DHT22;3324;50.796;7.228;2023-07-20T00:40:47;19.70;99.90
6581;DHT22;3324;50.796;7.228;2023-07-20T00:43:13;19.60;99.90
6581;DHT22;3324;50.796;7.228;2023-07-20T00:45:39;19.60;99.90
6581;DHT22;3324;50.796;7.228;2023-07-20T00:48:06;19.80;99.90
6581;DHT22;3324;50.796;7.228;2023-07-20T00:50:32;19.70;99.90
6581;DHT22;3324;50.796;7.228;2023-07-20T00:52:59;19.80;99.90
6581;DHT22;3324;50.796;7.228;2023-07-20T00:55:25;19.60;99.90
6581;DHT22;3324;50.796;7.228;2023-07-20T00:57:52;19.60;99.90
6581;DHT22;3324;50.796;7.228;2023-07-20T01:00:18;19.50;99.90
6581;DHT22;3324;50.796;7.228;2023-07-20T01:02:44;19.40;99.90
6581;DHT22;3324;50.796;7.228;2023-07-20T01:05:10;19.40;99.90
6581;DHT22;3324;50.796;7.228;2023-07-20T01:07:58;19.30;99.90
6581;DHT22;3324;50.796;7.228;2023-07-20T01:10:42;19.30;99.90
6581;DHT22;3324;50.796;7.228;2023-07-20T01:13:10;19.30;99.90
6581;DHT22;3324;50.796;7.228;2023-07-20T01:15:36;19.20;99.90
6581;DHT22;3324;50.796;7.228;2023-07-20T01:18:02;19.20;99.90
6581;DHT22;3324;50.796;7.228;2023-07-20T01:20:31;19.20;99.90
6581;DHT22;3324;50.796;7.228;2023-07-20T01:25:45;19.10;99.90
6581;DHT22;3324;50.796;7.228;2023-07-20T01:31:28;19.20;99.90
6581;DHT22;3324;50.796;7.228;2023-07-20T01:33:58;19.10;99.90
6581;DHT22;3324;50.796;7.228;2023-07-20T01:36:29;19.00;99.90
6581;DHT22;3324;50.796;7.228;2023-07-20T01:38:56;19.00;99.90
6581;DHT22;3324;50.796;7.228;2023-07-20T01:41:22;18.90;99.90
6581;DHT22;3324;50.796;7.228;2023-07-20T01:43:48;18.90;99.90
6581;DHT22;3324;50.796;7.228;2023-07-20T01:46:14;18.90;99.90
6581;DHT22;3324;50.796;7.228;2023-07-20T01:48:39;18.90;99.90
6581;DHT22;3324;50.796;7.228;2023-07-20T01:51:05;18.80;99.90
6581;DHT22;3324;50.796;7.228;2023-07-20T01:53:30;18.80;99.90
6581;DHT22;3324;50.796;7.228;2023-07-20T01:55:57;18.80;99.90
6581;DHT22;3324;50.796;7.228;2023-07-20T01:58:23;18.80;99.90
6581;DHT22;3324;50.796;7.228;2023-07-20T02:00:48;18.80;99.90
6581;DHT22;3324;50.796;7.228;2023-07-20T02:03:14;18.80;99.90
6581;DHT22;3324;50.796;7.228;2023-07-20T02:05:41;18.80;99.90
6581;DHT22;3324;50.796;7.228;2023-07-20T02:08:07;18.80;99.90
6581;DHT22;3324;50.796;7.228;2023-07-20T02:10:33;18.80;99.90
6581;DHT22;3324;50.796;7.228;2023-07-20T02:12:58;18.70;99.90
6581;DHT22;3324;50.796;7.228;2023-07-20T02:15:24;18.60;99.90
6581;DHT22;3324;50.796;7.228;2023-07-20T02:17:49;18.60;99.90
6581;DHT22;3324;50.796;7.228;2023-07-20T02:20:15;18.60;99.90
6581;DHT22;3324;50.796;7.228;2023-07-20T02:22:41;18.60;99.90
6581;DHT22;3324;50.796;7.228;2023-07-20T02:25:07;18.60;99.90
6581;DHT22;3324;50.796;7.228;2023-07-20T02:27:37;18.60;99.90
6581;DHT22;3324;50.796;7.228;2023-07-20T02:30:03;18.60;99.90
6581;DHT22;3324;50.796;7.228;2023-07-20T02:32:30;18.50;99.90
6581;DHT22;3324;50.796;7.228;2023-07-20T02:34:55;18.50;99.90
6581;DHT22;3324;50.796;7.228;2023-07-20T02:37:21;18.30;99.90
6581;DHT22;3324;50.796;7.228;2023-07-20T02:39:47;18.30;99.90
6581;DHT22;3324;50.796;7.228;2023-07-20T02:42:12;18.20;99.90
6581;DHT22;3324;50.796;7.228;2023-07-20T02:44:38;18.20;99.90
6581;DHT22;3324;50.796;7.228;2023-07-20T02:47:04;18.20;99.90
6581;DHT22;3324;50.796;7.228;2023-07-20T02:49:30;18.20;99.90
6581;DHT22;3324;50.796;7.228;2023-07-20T02:51:55;18.20;99.90
6581;DHT22;3324;50.796;7.228;2023-07-20T02:54:21;18.10;99.90
6581;DHT22;3324;50.796;7.228;2023-07-20T02:56:47;18.20;99.90
6581;DHT22;3324;50.796;7.228;2023-07-20T02:59:12;18.10;99.90
6581;DHT22;3324;50.796;7.228;2023-07-20T03:01:38;18.20;99.90
6581;DHT22;3324;50.796;7.228;2023-07-20T03:04:03;18.10;99.90
6581;DHT22;3324;50.796;7.228;2023-07-20T03:06:29;18.20;99.90
6581;DHT22;3324;50.796;7.228;2023-07-20T03:08:55;18.10;99.90
6581;DHT22;3324;50.796;7.228;2023-07-20T03:11:20;18.10;99.90
6581;DHT22;3324;50.796;7.228;2023-07-20T03:13:47;18.00;99.90
6581;DHT22;3324;50.796;7.228;2023-07-20T03:16:15;18.00;99.90
6581;DHT22;3324;50.796;7.228;2023-07-20T03:18:44;18.00;99.90
6581;DHT22;3324;50.796;7.228;2023-07-20T03:21:11;17.90;99.90
6581;DHT22;3324;50.796;7.228;2023-07-20T03:23:37;17.80;99.90
6581;DHT22;3324;50.796;7.228;2023-07-20T03:26:03;17.80;99.90
6581;DHT22;3324;50.796;7.228;2023-07-20T03:28:29;17.70;99.90
6581;DHT22;3324;50.796;7.228;2023-07-20T03:30:56;17.70;99.90
6581;DHT22;3324;50.796;7.228;2023-07-20T03:33:26;17.70;99.90
6581;DHT22;3324;50.796;7.228;2023-07-20T03:35:53;17.70;99.90
6581;DHT22;3324;50.796;7.228;2023-07-20T03:38:19;17.70;99.90
6581;DHT22;3324;50.796;7.228;2023-07-20T03:40:57;17.60;99.90
6581;DHT22;3324;50.796;7.228;2023-07-20T03:43:24;17.70;99.90
6581;DHT22;3324;50.796;7.228;2023-07-20T03:45:50;17.80;99.90
6581;DHT22;3324;50.796;7.228;2023-07-20T03:48:20;17.70;99.90
6581;DHT22;3324;50.796;7.228;2023-07-20T03:50:48;17.80;99.90
6581;DHT22;3324;50.796;7.228;2023-07-20T03:53:14;17.80;99.90
6581;DHT22;3324;50.796;7.228;2023-07-20T03:55:49;17.70;99.90
6581;DHT22;3324;50.796;7.228;2023-07-20T03:58:16;17.70;99.90
6581;DHT22;3324;50.796;7.228;2023-07-20T04:00:49;17.60;99.90
6581;DHT22;3324;50.796;7.228;2023-07-20T04:03:19;17.60;99.90
6581;DHT22;3324;50.796;7.228;2023-07-20T04:05:45;17.70;99.90
6581;DHT22;3324;50.796;7.228;2023-07-20T04:08:10;17.80;99.90
6581;DHT22;3324;50.796;7.228;2023-07-20T04:10:37;17.80;99.90
6581;DHT22;3324;50.796;7.228;2023-07-20T04:13:03;17.80;99.90
6581;DHT22;3324;50.796;7.228;2023-07-20T04:15:28;17.80;99.90
6581;DHT22;3324;50.796;7.228;2023-07-20T04:17:54;17.80;99.90
6581;DHT22;3324;50.796;7.228;2023-07-20T04:20:22;17.90;99.90
6581;DHT22;3324;50.796;7.228;2023-07-20T04:22:47;17.90;99.90
6581;DHT22;3324;50.796;7.228;2023-07-20T04:25:13;17.90;99.90
6581;DHT22;3324;50.796;7.228;2023-07-20T04:27:38;17.90;99.90
6581;DHT22;3324;50.796;7.228;2023-07-20T04:30:06;17.90;99.90
6581;DHT22;3324;50.796;7.228;2023-07-20T04:32:35;17.90;99.90
6581;DHT22;3324;50.796;7.228;2023-07-20T04:35:05;18.00;99.90
6581;DHT22;3324;50.796;7.228;2023-07-20T04:37:30;18.00;99.90
6581;DHT22;3324;50.796;7.228;2023-07-20T04:39:56;18.10;99.90
6581;DHT22;3324;50.796;7.228;2023-07-20T04:42:22;18.10;99.90
6581;DHT22;3324;50.796;7.228;2023-07-20T04:44:47;18.20;99.90
6581;DHT22;3324;50.796;7.228;2023-07-20T04:47:13;18.20;99.90
6581;DHT22;3324;50.796;7.228;2023-07-20T04:49:38;18.20;99.90
6581;DHT22;3324;50.796;7.228;2023-07-20T04:52:04;18.20;99.90
6581;DHT22;3324;50.796;7.228;2023-07-20T04:54:30;18.20;99.90
6581;DHT22;3324;50.796;7.228;2023-07-20T04:56:56;18.20;99.90
6581;DHT22;3324;50.796;7.228;2023-07-20T04:59:21;18.30;99.90
6581;DHT22;3324;50.796;7.228;2023-07-20T05:01:47;18.30;99.90
6581;DHT22;3324;50.796;7.228;2023-07-20T05:04:12;18.30;99.90
6581;DHT22;3324;50.796;7.228;2023-07-20T05:06:38;18.30;99.90
6581;DHT22;3324;50.796;7.228;2023-07-20T05:09:04;18.30;99.90
6581;DHT22;3324;50.796;7.228;2023-07-20T05:11:33;18.30;99.90
6581;DHT22;3324;50.796;7.228;2023-07-20T05:13:59;18.20;99.90
6581;DHT22;3324;50.796;7.228;2023-07-20T05:16:24;18.20;99.90
6581;DHT22;3324;50.796;7.228;2023-07-20T05:18:50;18.20;99.90
6581;DHT22;3324;50.796;7.228;2023-07-20T05:21:16;18.30;99.90
6581;DHT22;3324;50.796;7.228;2023-07-20T05:23:42;18.20;99.90
6581;DHT22;3324;50.796;7.228;2023-07-20T05:26:08;18.30;99.90
6581;DHT22;3324;50.796;7.228;2023-07-20T05:28:33;18.20;99.90
6581;DHT22;3324;50.796;7.228;2023-07-20T05:30:59;18.30;99.90
6581;DHT22;3324;50.796;7.228;2023-07-20T05:33:27;18.30;99.90
6581;DHT22;3324;50.796;7.228;2023-07-20T05:35:53;18.30;99.90
6581;DHT22;3324;50.796;7.228;2023-07-20T05:38:18;18.30;99.90
6581;DHT22;3324;50.796;7.228;2023-07-20T05:40:45;18.30;99.90
6581;DHT22;3324;50.796;7.228;2023-07-20T05:43:11;18.40;99.90
6581;DHT22;3324;50.796;7.228;2023-07-20T05:45:37;18.50;99.90
6581;DHT22;3324;50.796;7.228;2023-07-20T05:48:02;18.60;99.90
6581;DHT22;3324;50.796;7.228;2023-07-20T05:50:28;18.60;99.90
6581;DHT22;3324;50.796;7.228;2023-07-20T05:52:54;18.70;99.90
6581;DHT22;3324;50.796;7.228;2023-07-20T05:55:20;18.70;99.90
6581;DHT22;3324;50.796;7.228;2023-07-20T05:57:46;18.80;99.90
6581;DHT22;3324;50.796;7.228;2023-07-20T06:00:13;18.90;99.90
6581;DHT22;3324;50.796;7.228;2023-07-20T06:02:39;19.00;99.90
6581;DHT22;3324;50.796;7.228;2023-07-20T06:05:06;19.10;99.90
6581;DHT22;3324;50.796;7.228;2023-07-20T06:07:36;19.20;99.90
6581;DHT22;3324;50.796;7.228;2023-07-20T06:10:01;19.30;99.90
6581;DHT22;3324;50.796;7.228;2023-07-20T06:12:27;19.40;99.90
6581;DHT22;3324;50.796;7.228;2023-07-20T06:14:53;19.50;99.90
6581;DHT22;3324;50.796;7.228;2023-07-20T06:17:19;19.40;99.90
6581;DHT22;3324;50.796;7.228;2023-07-20T06:19:44;19.40;99.90
6581;DHT22;3324;50.796;7.228;2023-07-20T06:22:10;19.40;99.90
6581;DHT22;3324;50.796;7.228;2023-07-20T06:24:35;19.30;99.90
6581;DHT22;3324;50.796;7.228;2023-07-20T06:27:01;19.20;99.90
6581;DHT22;3324;50.796;7.228;2023-07-20T06:29:28;19.20;99.90
6581;DHT22;3324;50.796;7.228;2023-07-20T06:31:53;19.20;99.90
6581;DHT22;3324;50.796;7.228;2023-07-20T06:34:19;19.20;99.90
6581;DHT22;3324;50.796;7.228;2023-07-20T06:36:44;19.20;99.90
6581;DHT22;3324;50.796;7.228;2023-07-20T06:39:10;19.20;99.90
6581;DHT22;3324;50.796;7.228;2023-07-20T06:41:36;19.10;99.90
6581;DHT22;3324;50.796;7.228;2023-07-20T06:44:02;19.10;99.90
6581;DHT22;3324;50.796;7.228;2023-07-20T06:46:28;19.30;99.90
6581;DHT22;3324;50.796;7.228;2023-07-20T06:48:54;19.40;99.90
6581;DHT22;3324;50.796;7.228;2023-07-20T06:51:20;19.40;99.90
6581;DHT22;3324;50.796;7.228;2023-07-20T06:53:46;19.50;99.90
6581;DHT22;3324;50.796;7.228;2023-07-20T06:56:11;19.70;99.90
6581;DHT22;3324;50.796;7.228;2023-07-20T06:58:37;19.80;99.90
6581;DHT22;3324;50.796;7.228;2023-07-20T07:01:07;19.80;99.90
6581;DHT22;3324;50.796;7.228;2023-07-20T07:03:33;19.70;99.90
6581;DHT22;3324;50.796;7.228;2023-07-20T07:05:59;19.60;99.90
6581;DHT22;3324;50.796;7.228;2023-07-20T07:08:25;19.60;99.90
6581;DHT22;3324;50.796;7.228;2023-07-20T07:10:50;19.60;99.90
6581;DHT22;3324;50.796;7.228;2023-07-20T07:13:16;19.60;99.90
6581;DHT22;3324;50.796;7.228;2023-07-20T07:15:42;19.80;99.90
6581;DHT22;3324;50.796;7.228;2023-07-20T07:18:08;19.90;99.90
6581;DHT22;3324;50.796;7.228;2023-07-20T07:20:33;20.00;99.90
6581;DHT22;3324;50.796;7.228;2023-07-20T07:22:59;19.90;99.90
6581;DHT22;3324;50.796;7.228;2023-07-20T07:25:26;19.80;99.90
6581;DHT22;3324;50.796;7.228;2023-07-20T07:27:53;19.90;99.90
6581;DHT22;3324;50.796;7.228;2023-07-20T07:30:20;20.00;99.90
6581;DHT22;3324;50.796;7.228;2023-07-20T07:32:45;20.20;99.90
6581;DHT22;3324;50.796;7.228;2023-07-20T07:35:11;20.40;99.90
6581;DHT22;3324;50.796;7.228;2023-07-20T07:37:37;20.50;99.90
6581;DHT22;3324;50.796;7.228;2023-07-20T07:40:03;20.50;99.90
6581;DHT22;3324;50.796;7.228;2023-07-20T07:42:31;20.40;99.90
6581;DHT22;3324;50.796;7.228;2023-07-20T07:44:56;20.40;99.90
6581;DHT22;3324;50.796;7.228;2023-07-20T07:47:22;20.60;99.90
6581;DHT22;3324;50.796;7.228;2023-07-20T07:49:47;20.80;99.90
6581;DHT22;3324;50.796;7.228;2023-07-20T07:52:13;21.00;99.90
6581;DHT22;3324;50.796;7.228;2023-07-20T07:54:39;21.10;99.90
6581;DHT22;3324;50.796;7.228;2023-07-20T07:57:05;21.10;99.90
6581;DHT22;3324;50.796;7.228;2023-07-20T07:59:31;21.30;99.90
6581;DHT22;3324;50.796;7.228;2023-07-20T08:02:02;21.50;99.90
6581;DHT22;3324;50.796;7.228;2023-07-20T08:04:28;21.70;99.90
6581;DHT22;3324;50.796;7.228;2023-07-20T08:06:54;21.80;99.90
6581;DHT22;3324;50.796;7.228;2023-07-20T08:09:19;21.80;99.90
6581;DHT22;3324;50.796;7.228;2023-07-20T08:11:45;21.90;99.90
6581;DHT22;3324;50.796;7.228;2023-07-20T08:14:10;21.90;99.90
6581;DHT22;3324;50.796;7.228;2023-07-20T08:16:36;22.10;99.90
6581;DHT22;3324;50.796;7.228;2023-07-20T08:19:01;22.30;99.90
6581;DHT22;3324;50.796;7.228;2023-07-20T08:21:27;22.50;99.90
6581;DHT22;3324;50.796;7.228;2023-07-20T08:23:53;22.60;99.90
6581;DHT22;3324;50.796;7.228;2023-07-20T08:26:18;22.40;99.90
6581;DHT22;3324;50.796;7.228;2023-07-20T08:28:47;22.10;99.90
6581;DHT22;3324;50.796;7.228;2023-07-20T08:31:13;22.00;99.90
6581;DHT22;3324;50.796;7.228;2023-07-20T08:33:39;22.00;99.90
6581;DHT22;3324;50.796;7.228;2023-07-20T08:36:04;22.20;99.90
6581;DHT22;3324;50.796;7.228;2023-07-20T08:38:31;22.50;99.90
6581;DHT22;3324;50.796;7.228;2023-07-20T08:40:57;22.80;99.90
6581;DHT22;3324;50.796;7.228;2023-07-20T08:43:25;22.90;99.90
6581;DHT22;3324;50.796;7.228;2023-07-20T08:45:52;22.80;99.90
6581;DHT22;3324;50.796;7.228;2023-07-20T08:48:20;22.80;99.90
6581;DHT22;3324;50.796;7.228;2023-07-20T08:50:48;22.60;99.90
6581;DHT22;3324;50.796;7.228;2023-07-20T08:53:14;22.60;99.90
6581;DHT22;3324;50.796;7.228;2023-07-20T08:55:43;22.90;99.90
6581;DHT22;3324;50.796;7.228;2023-07-20T08:58:12;23.00;99.90
6581;DHT22;3324;50.796;7.228;2023-07-20T09:00:38;23.20;99.90
6581;DHT22;3324;50.796;7.228;2023-07-20T09:03:04;23.20;99.90
6581;DHT22;3324;50.796;7.228;2023-07-20T09:05:30;23.10;99.90
6581;DHT22;3324;50.796;7.228;2023-07-20T09:07:56;23.40;99.90
6581;DHT22;3324;50.796;7.228;2023-07-20T09:10:22;23.60;99.90
6581;DHT22;3324;50.796;7.228;2023-07-20T09:12:49;23.90;99.90
6581;DHT22;3324;50.796;7.228;2023-07-20T09:15:14;24.10;99.90
6581;DHT22;3324;50.796;7.228;2023-07-20T09:17:46;24.30;99.90
6581;DHT22;3324;50.796;7.228;2023-07-20T09:20:12;24.10;99.90
6581;DHT22;3324;50.796;7.228;2023-07-20T09:22:38;23.80;99.90
6581;DHT22;3324;50.796;7.228;2023-07-20T09:25:11;23.70;99.90
6581;DHT22;3324;50.796;7.228;2023-07-20T09:27:42;23.60;99.90
6581;DHT22;3324;50.796;7.228;2023-07-20T09:30:08;23.50;99.90
6581;DHT22;3324;50.796;7.228;2023-07-20T09:32:43;23.40;99.90
6581;DHT22;3324;50.796;7.228;2023-07-20T09:37:39;23.20;99.90
6581;DHT22;3324;50.796;7.228;2023-07-20T09:40:07;23.30;99.90
6581;DHT22;3324;50.796;7.228;2023-07-20T09:42:35;23.50;99.90
6581;DHT22;3324;50.796;7.228;2023-07-20T09:45:00;23.60;99.90
6581;DHT22;3324;50.796;7.228;2023-07-20T09:47:26;23.90;99.90
6581;DHT22;3324;50.796;7.228;2023-07-20T09:49:59;24.10;99.90
6581;DHT22;3324;50.796;7.228;2023-07-20T09:52:26;24.20;99.90
6581;DHT22;3324;50.796;7.228;2023-07-20T09:54:51;24.50;99.90
6581;DHT22;3324;50.796;7.228;2023-07-20T09:57:18;24.90;99.90
6581;DHT22;3324;50.796;7.228;2023-07-20T09:59:43;25.20;99.90
6581;DHT22;3324;50.796;7.228;2023-07-20T10:02:20;25.30;99.90
6581;DHT22;3324;50.796;7.228;2023-07-20T10:04:50;25.20;99.90
6581;DHT22;3324;50.796;7.228;2023-07-20T10:07:18;24.90;99.90
6581;DHT22;3324;50.796;7.228;2023-07-20T10:09:47;24.70;99.90
6581;DHT22;3324;50.796;7.228;2023-07-20T10:12:15;24.40;99.90
6581;DHT22;3324;50.796;7.228;2023-07-20T10:14:44;24.10;99.90
6581;DHT22;3324;50.796;7.228;2023-07-20T10:17:17;23.90;99.90
6581;DHT22;3324;50.796;7.228;2023-07-20T10:19:47;23.80;99.90
6581;DHT22;3324;50.796;7.228;2023-07-20T10:22:16;23.90;99.90
6581;DHT22;3324;50.796;7.228;2023-07-20T10:24:46;24.20;99.90
6581;DHT22;3324;50.796;7.228;2023-07-20T10:27:13;24.60;99.90
6581;DHT22;3324;50.796;7.228;2023-07-20T10:29:40;25.00;99.90
6581;DHT22;3324;50.796;7.228;2023-07-20T10:32:06;25.20;99.90
6581;DHT22;3324;50.796;7.228;2023-07-20T10:34:33;25.40;99.90
6581;DHT22;3324;50.796;7.228;2023-07-20T10:36:59;25.50;99.90
6581;DHT22;3324;50.796;7.228;2023-07-20T10:39:30;25.70;99.90
6581;DHT22;3324;50.796;7.228;2023-07-20T10:42:09;26.00;99.90
6581;DHT22;3324;50.796;7.228;2023-07-20T10:44:41;26.10;98.30
6581;DHT22;3324;50.796;7.228;2023-07-20T10:47:12;26.30;97.90
6581;DHT22;3324;50.796;7.228;2023-07-20T10:49:58;26.20;97.70
6581;DHT22;3324;50.796;7.228;2023-07-20T10:52:24;26.20;98.00
6581;DHT22;3324;50.796;7.228;2023-07-20T10:54:50;26.30;98.60
6581;DHT22;3324;50.796;7.228;2023-07-20T10:57:29;26.40;98.50
6581;DHT22;3324;50.796;7.228;2023-07-20T11:00:18;26.40;98.00
6581;DHT22;3324;50.796;7.228;2023-07-20T11:02:46;26.30;97.50
6581;DHT22;3324;50.796;7.228;2023-07-20T11:05:38;26.00;97.80
6581;DHT22;3324;50.796;7.228;2023-07-20T11:08:09;25.70;99.40
6581;DHT22;3324;50.796;7.228;2023-07-20T11:10:35;25.40;99.10
6581;DHT22;3324;50.796;7.228;2023-07-20T11:13:20;25.10;99.70
6581;DHT22;3324;50.796;7.228;2023-07-20T11:16:08;24.90;99.90
6581;DHT22;3324;50.796;7.228;2023-07-20T11:18:33;24.70;99.90
6581;DHT22;3324;50.796;7.228;2023-07-20T11:21:00;24.40;99.90
6581;DHT22;3324;50.796;7.228;2023-07-20T11:23:26;24.20;99.90
6581;DHT22;3324;50.796;7.228;2023-07-20T11:25:51;24.00;99.90
6581;DHT22;3324;50.796;7.228;2023-07-20T11:28:17;23.90;99.90
6581;DHT22;3324;50.796;7.228;2023-07-20T11:30:42;24.10;99.90
6581;DHT22;3324;50.796;7.228;2023-07-20T11:33:08;24.50;99.90
6581;DHT22;3324;50.796;7.228;2023-07-20T11:35:44;24.90;99.90
6581;DHT22;3324;50.796;7.228;2023-07-20T11:38:12;25.20;99.90
6581;DHT22;3324;50.796;7.228;2023-07-20T11:40:45;25.30;99.90
6581;DHT22;3324;50.796;7.228;2023-07-20T11:43:15;25.10;99.90
6581;DHT22;3324;50.796;7.228;2023-07-20T11:45:40;25.00;99.90
6581;DHT22;3324;50.796;7.228;2023-07-20T11:48:06;24.80;99.90
6581;DHT22;3324;50.796;7.228;2023-07-20T11:50:32;24.70;99.90
6581;DHT22;3324;50.796;7.228;2023-07-20T11:53:03;24.60;99.90
6581;DHT22;3324;50.796;7.228;2023-07-20T11:55:29;24.40;99.90
6581;DHT22;3324;50.796;7.228;2023-07-20T11:58:08;24.30;99.90
6581;DHT22;3324;50.796;7.228;2023-07-20T12:00:34;24.30;99.50
6581;DHT22;3324;50.796;7.228;2023-07-20T12:03:01;24.20;99.90
6581;DHT22;3324;50.796;7.228;2023-07-20T12:05:26;24.20;99.90
6581;DHT22;3324;50.796;7.228;2023-07-20T12:07:52;24.30;99.90
6581;DHT22;3324;50.796;7.228;2023-07-20T12:10:26;24.60;99.90
6581;DHT22;3324;50.796;7.228;2023-07-20T12:12:54;25.00;99.00
6581;DHT22;3324;50.796;7.228;2023-07-20T12:15:24;25.20;98.90
6581;DHT22;3324;50.796;7.228;2023-07-20T12:17:56;25.20;97.80
6581;DHT22;3324;50.796;7.228;2023-07-20T12:20:26;25.20;98.50
6581;DHT22;3324;50.796;7.228;2023-07-20T12:22:52;25.20;97.70
6581;DHT22;3324;50.796;7.228;2023-07-20T12:25:17;25.00;97.40
6581;DHT22;3324;50.796;7.228;2023-07-20T12:27:47;25.00;96.20
6581;DHT22;3324;50.796;7.228;2023-07-20T12:30:13;24.90;97.90
6581;DHT22;3324;50.796;7.228;2023-07-20T12:32:39;25.00;98.50
6581;DHT22;3324;50.796;7.228;2023-07-20T12:35:05;25.00;97.70
6581;DHT22;3324;50.796;7.228;2023-07-20T12:37:31;25.00;99.10
6581;DHT22;3324;50.796;7.228;2023-07-20T12:39:57;25.10;99.50
6581;DHT22;3324;50.796;7.228;2023-07-20T12:42:22;25.30;99.30
6581;DHT22;3324;50.796;7.228;2023-07-20T12:44:49;25.40;98.70
6581;DHT22;3324;50.796;7.228;2023-07-20T12:47:14;25.50;98.00
6581;DHT22;3324;50.796;7.228;2023-07-20T12:49:41;25.50;98.30
6581;DHT22;3324;50.796;7.228;2023-07-20T12:52:10;25.70;97.80
6581;DHT22;3324;50.796;7.228;2023-07-20T12:54:36;26.00;96.40
6581;DHT22;3324;50.796;7.228;2023-07-20T12:57:02;26.20;96.50
6581;DHT22;3324;50.796;7.228;2023-07-20T12:59:29;26.40;95.90
6581;DHT22;3324;50.796;7.228;2023-07-20T13:01:54;26.50;94.10
6581;DHT22;3324;50.796;7.228;2023-07-20T13:04:20;26.60;94.40
6581;DHT22;3324;50.796;7.228;2023-07-20T13:06:45;26.80;95.00
6581;DHT22;3324;50.796;7.228;2023-07-20T13:09:11;26.90;94.50
6581;DHT22;3324;50.796;7.228;2023-07-20T13:11:37;27.10;93.10
6581;DHT22;3324;50.796;7.228;2023-07-20T13:14:02;27.10;91.90
6581;DHT22;3324;50.796;7.228;2023-07-20T13:16:28;27.10;92.70
6581;DHT22;3324;50.796;7.228;2023-07-20T13:18:53;27.10;94.50
6581;DHT22;3324;50.796;7.228;2023-07-20T13:21:19;27.00;92.80
6581;DHT22;3324;50.796;7.228;2023-07-20T13:23:48;26.70;92.40
6581;DHT22;3324;50.796;7.228;2023-07-20T13:26:14;26.60;92.50
6581;DHT22;3324;50.796;7.228;2023-07-20T13:28:40;26.60;93.50
6581;DHT22;3324;50.796;7.228;2023-07-20T13:31:06;26.50;92.90
6581;DHT22;3324;50.796;7.228;2023-07-20T13:33:33;26.50;91.70
6581;DHT22;3324;50.796;7.228;2023-07-20T13:35:59;26.40;91.70
6581;DHT22;3324;50.796;7.228;2023-07-20T13:38:24;26.40;90.70
6581;DHT22;3324;50.796;7.228;2023-07-20T13:40:50;26.30;90.70
6581;DHT22;3324;50.796;7.228;2023-07-20T13:43:16;26.10;91.30
6581;DHT22;3324;50.796;7.228;2023-07-20T13:45:41;25.80;92.70
6581;DHT22;3324;50.796;7.228;2023-07-20T13:48:07;25.60;94.10
6581;DHT22;3324;50.796;7.228;2023-07-20T13:50:33;25.40;95.20
6581;DHT22;3324;50.796;7.228;2023-07-20T13:52:58;25.50;95.10
6581;DHT22;3324;50.796;7.228;2023-07-20T13:55:24;25.60;95.40
6581;DHT22;3324;50.796;7.228;2023-07-20T13:57:49;25.80;94.00
6581;DHT22;3324;50.796;7.228;2023-07-20T14:00:16;26.00;94.60
6581;DHT22;3324;50.796;7.228;2023-07-20T14:02:41;25.90;94.50
6581;DHT22;3324;50.796;7.228;2023-07-20T14:05:07;25.90;93.70
6581;DHT22;3324;50.796;7.228;2023-07-20T14:07:34;25.90;93.50
6581;DHT22;3324;50.796;7.228;2023-07-20T14:10:01;25.90;93.80
6581;DHT22;3324;50.796;7.228;2023-07-20T14:12:26;26.00;93.20
6581;DHT22;3324;50.796;7.228;2023-07-20T14:14:54;26.00;92.90
6581;DHT22;3324;50.796;7.228;2023-07-20T14:17:19;26.00;93.20
6581;DHT22;3324;50.796;7.228;2023-07-20T14:19:45;26.00;93.40
6581;DHT22;3324;50.796;7.228;2023-07-20T14:22:11;25.90;93.30
6581;DHT22;3324;50.796;7.228;2023-07-20T14:24:36;25.60;92.70
6581;DHT22;3324;50.796;7.228;2023-07-20T14:27:02;25.50;93.50
6581;DHT22;3324;50.796;7.228;2023-07-20T14:29:28;25.50;92.70
6581;DHT22;3324;50.796;7.228;2023-07-20T14:31:57;25.30;93.90
6581;DHT22;3324;50.796;7.228;2023-07-20T14:34:22;25.30;92.70
6581;DHT22;3324;50.796;7.228;2023-07-20T14:36:48;25.20;92.90
6581;DHT22;3324;50.796;7.228;2023-07-20T14:39:15;25.10;94.70
6581;DHT22;3324;50.796;7.228;2023-07-20T14:41:41;25.10;95.50
6581;DHT22;3324;50.796;7.228;2023-07-20T14:44:06;25.30;93.10
6581;DHT22;3324;50.796;7.228;2023-07-20T14:46:32;25.50;94.10
6581;DHT22;3324;50.796;7.228;2023-07-20T14:48:57;25.70;92.80
6581;DHT22;3324;50.796;7.228;2023-07-20T14:51:23;25.80;92.20
6581;DHT22;3324;50.796;7.228;2023-07-20T14:53:49;25.80;91.90
6581;DHT22;3324;50.796;7.228;2023-07-20T14:56:15;25.70;92.00
6581;DHT22;3324;50.796;7.228;2023-07-20T14:58:41;25.60;91.60
6581;DHT22;3324;50.796;7.228;2023-07-20T15:01:06;25.60;91.00
6581;DHT22;3324;50.796;7.228;2023-07-20T15:03:32;25.60;90.60
6581;DHT22;3324;50.796;7.228;2023-07-20T15:05:57;25.60;91.20
6581;DHT22;3324;50.796;7.228;2023-07-20T15:08:23;25.40;90.80
6581;DHT22;3324;50.796;7.228;2023-07-20T15:10:49;25.30;90.60
6581;DHT22;3324;50.796;7.228;2023-07-20T15:13:15;25.20;91.50
6581;DHT22;3324;50.796;7.228;2023-07-20T15:15:40;25.00;91.80
6581;DHT22;3324;50.796;7.228;2023-07-20T15:18:07;25.00;93.20
6581;DHT22;3324;50.796;7.228;2023-07-20T15:20:32;25.20;91.30
6581;DHT22;3324;50.796;7.228;2023-07-20T15:22:58;25.30;90.20
6581;DHT22;3324;50.796;7.228;2023-07-20T15:25:24;25.40;90.80
6581;DHT22;3324;50.796;7.228;2023-07-20T15:27:50;25.40;90.40
6581;DHT22;3324;50.796;7.228;2023-07-20T15:30:16;25.30;90.10
6581;DHT22;3324;50.796;7.228;2023-07-20T15:32:42;25.30;90.70
6581;DHT22;3324;50.796;7.228;2023-07-20T15:35:09;25.30;90.50
6581;DHT22;3324;50.796;7.228;2023-07-20T15:37:35;25.40;88.00
6581;DHT22;3324;50.796;7.228;2023-07-20T15:40:02;25.40;86.40
6581;DHT22;3324;50.796;7.228;2023-07-20T15:42:30;25.30;88.50
6581;DHT22;3324;50.796;7.228;2023-07-20T15:44:56;25.20;88.90
6581;DHT22;3324;50.796;7.228;2023-07-20T15:47:22;25.10;90.00
6581;DHT22;3324;50.796;7.228;2023-07-20T15:49:48;24.90;88.80
6581;DHT22;3324;50.796;7.228;2023-07-20T15:52:14;24.80;90.10
6581;DHT22;3324;50.796;7.228;2023-07-20T15:54:40;24.80;90.30
6581;DHT22;3324;50.796;7.228;2023-07-20T15:57:06;24.80;90.00
6581;DHT22;3324;50.796;7.228;2023-07-20T15:59:33;24.80;87.50
6581;DHT22;3324;50.796;7.228;2023-07-20T16:01:59;24.80;89.20
6581;DHT22;3324;50.796;7.228;2023-07-20T16:04:25;24.60;87.70
6581;DHT22;3324;50.796;7.228;2023-07-20T16:06:50;24.70;85.90
6581;DHT22;3324;50.796;7.228;2023-07-20T16:09:16;24.60;86.40